createdAt,value
2022-09-23T00:03:17.815Z,91.73
2022-09-23T00:08:20.981Z,91.96
2022-09-23T00:13:25.929Z,92.52
2022-09-23T00:18:28.832Z,93.06
2022-09-23T00:23:32.053Z,92.60
2022-09-23T00:28:37.167Z,93.00
2022-09-23T00:33:41.333Z,93.03
2022-09-23T00:38:45.556Z,92.63
2022-09-23T00:43:51.807Z,93.07
2022-09-23T00:49:01.053Z,93.43
2022-09-23T00:54:05.489Z,93.29
2022-09-23T00:59:10.821Z,92.79
2022-09-23T01:04:14.785Z,92.88
2022-09-23T01:09:18.452Z,93.76
2022-09-23T01:14:37.764Z,93.81
2022-09-23T01:20:06.952Z,93.64
2022-09-23T01:25:27.899Z,93.16
2022-09-23T01:30:52.157Z,94.22
2022-09-23T01:36:10.073Z,93.75
2022-09-23T01:41:27.666Z,94.32
2022-09-23T01:46:36.691Z,94.04
2022-09-23T01:51:44.350Z,95.13
2022-09-23T01:56:52.544Z,94.80
2022-09-23T02:02:01.175Z,94.87
2022-09-23T02:07:09.342Z,94.81
2022-09-23T02:12:18.497Z,94.44
2022-09-23T02:17:29.643Z,95.25
2022-09-23T02:22:40.540Z,95.68
2022-09-23T02:27:48.580Z,95.52
2022-09-23T02:32:56.473Z,95.90
2022-09-23T02:38:10.436Z,95.93
2022-09-23T02:43:19.965Z,95.68
2022-09-23T02:48:28.737Z,95.90
2022-09-23T02:53:34.708Z,95.73
2022-09-23T02:58:38.373Z,94.22
2022-09-23T03:03:48.167Z,94.95
2022-09-23T03:08:57.669Z,93.80
2022-09-23T03:14:17.868Z,92.65
2022-09-23T03:19:28.836Z,92.20
2022-09-23T03:24:34.634Z,90.97
2022-09-23T03:29:37.636Z,90.92
2022-09-23T03:34:44.446Z,90.63
2022-09-23T03:39:51.305Z,90.49
2022-09-23T03:44:57.246Z,90.53
2022-09-23T03:50:01.524Z,90.27
2022-09-23T03:55:05.020Z,89.70
2022-09-23T04:00:09.478Z,90.16
2022-09-23T04:05:18.336Z,89.97
2022-09-23T04:10:21.227Z,89.81
2022-09-23T04:15:24.164Z,89.27
2022-09-23T04:20:29.111Z,89.37
2022-09-23T04:25:32.299Z,89.46
2022-09-23T04:30:35.136Z,89.69
2022-09-23T04:35:40.494Z,89.21
2022-09-23T04:40:43.592Z,88.52
2022-09-23T04:45:46.854Z,88.64
2022-09-23T04:50:51.173Z,88.27
2022-09-23T04:55:55.157Z,88.68
2022-09-23T05:01:02.987Z,88.42
2022-09-23T05:06:11.100Z,87.93
2022-09-23T05:11:14.436Z,87.59
2022-09-23T05:16:18.485Z,87.26
2022-09-23T05:21:24.695Z,88.19
2022-09-23T05:26:29.367Z,87.75
2022-09-23T05:31:32.473Z,88.19
2022-09-23T05:36:39.172Z,88.18
2022-09-23T05:41:43.580Z,88.20
2022-09-23T05:46:46.614Z,87.82
2022-09-23T05:51:50.929Z,87.85
2022-09-23T05:56:54.019Z,87.93
2022-09-23T06:01:57.109Z,87.77
2022-09-23T06:07:03.498Z,88.34
2022-09-23T06:12:07.600Z,88.20
2022-09-23T06:17:10.622Z,87.95
2022-09-23T06:22:17.009Z,87.81
2022-09-23T06:27:19.928Z,87.79
2022-09-23T06:32:23.348Z,88.39
2022-09-23T06:37:28.018Z,87.97
2022-09-23T06:42:30.998Z,87.69
2022-09-23T06:47:34.273Z,87.67
2022-09-23T06:52:38.530Z,88.02
2022-09-23T06:57:41.604Z,87.14
2022-09-23T07:02:44.763Z,87.08
2022-09-23T07:07:49.753Z,86.95
2022-09-23T07:12:52.812Z,86.02
2022-09-23T07:17:55.929Z,86.26
2022-09-23T07:23:00.489Z,86.21
2022-09-23T07:28:03.671Z,86.87
2022-09-23T07:33:22.758Z,86.59
2022-09-23T07:38:31.684Z,86.48
2022-09-23T07:43:35.101Z,86.59
2022-09-23T07:48:39.074Z,86.86
2022-09-23T07:53:43.490Z,86.41
2022-09-23T07:58:59.957Z,85.46
2022-09-23T08:04:06.397Z,85.59
2022-09-23T08:09:11.651Z,84.03
2022-09-23T08:14:17.966Z,84.45
2022-09-23T08:19:21.481Z,84.05
2022-09-23T08:24:26.702Z,84.05
2022-09-23T08:29:29.861Z,83.45
2022-09-23T08:34:32.929Z,83.47
2022-09-23T08:39:37.404Z,83.51
2022-09-23T08:44:48.040Z,82.34
2022-09-23T08:50:04.605Z,80.43
2022-09-23T08:55:13.512Z,81.39
2022-09-23T09:00:22.221Z,80.97
2022-09-23T09:05:28.781Z,77.89
2022-09-23T09:10:41.749Z,78.18
2022-09-23T09:15:55.029Z,76.91
2022-09-23T09:21:01.423Z,73.60
2022-09-23T09:26:07.522Z,73.81
2022-09-23T09:31:24.274Z,72.67
2022-09-23T09:36:37.595Z,72.33
2022-09-23T09:41:46.771Z,72.51
2022-09-23T09:47:01.866Z,71.71
2022-09-23T09:52:21.573Z,71.36
2022-09-23T09:57:41.015Z,66.88
2022-09-23T10:02:44.302Z,69.86
2022-09-23T10:07:48.552Z,68.79
2022-09-23T10:12:53.678Z,68.23
2022-09-23T10:17:56.867Z,67.49
2022-09-23T10:23:08.748Z,67.54
2022-09-23T10:28:45.708Z,67.89
2022-09-23T10:33:51.525Z,66.53
2022-09-23T10:39:19.893Z,65.66
2022-09-23T10:44:51.019Z,65.60
2022-09-23T10:50:15.677Z,65.79
2022-09-23T10:55:32.096Z,63.07
2022-09-23T11:00:44.745Z,64.79
2022-09-23T11:06:01.877Z,63.48
2022-09-23T11:11:20.687Z,62.71
2022-09-23T11:16:41.475Z,62.49
2022-09-23T11:21:55.491Z,63.66
2022-09-23T11:27:09.551Z,61.46
2022-09-23T11:32:32.200Z,60.84
2022-09-23T11:37:41.975Z,58.86
2022-09-23T11:42:53.610Z,59.37
2022-09-23T11:48:02.934Z,60.70
2022-09-23T11:53:10.488Z,56.66
2022-09-23T11:58:25.673Z,56.38
2022-09-23T12:03:44.866Z,58.31
2022-09-23T12:08:53.255Z,60.23
2022-09-23T12:14:04.187Z,60.61
2022-09-23T12:19:19.233Z,60.58
2022-09-23T12:24:46.317Z,62.05
2022-09-23T12:29:52.776Z,60.86
2022-09-23T12:34:57.759Z,61.42
2022-09-23T12:40:07.857Z,62.89
2022-09-23T12:45:39.092Z,60.73
2022-09-23T12:51:07.815Z,63.79
2022-09-23T12:56:17.187Z,62.72
2022-09-23T13:01:22.369Z,64.04
2022-09-23T13:06:41.335Z,63.27
2022-09-23T13:11:48.191Z,65.11
2022-09-23T13:16:52.463Z,65.33
2022-09-23T13:22:09.346Z,66.65
2022-09-23T13:27:26.622Z,66.84
2022-09-23T13:32:32.992Z,68.15
2022-09-23T13:37:43.907Z,67.43
2022-09-23T13:42:51.343Z,68.44
2022-09-23T13:47:57.210Z,70.43
2022-09-23T13:53:07.552Z,70.05
2022-09-23T13:58:21.093Z,70.15
2022-09-23T14:03:35.350Z,70.22
2022-09-23T14:08:45.513Z,70.46
2022-09-23T14:13:54.210Z,71.10
2022-09-23T14:18:59.723Z,72.01
2022-09-23T14:24:19.434Z,72.44
2022-09-23T14:29:30.045Z,73.84
2022-09-23T14:34:45.134Z,73.66
2022-09-23T14:39:57.587Z,73.67
2022-09-23T14:45:00.930Z,74.13
2022-09-23T14:50:21.160Z,75.24
2022-09-23T14:55:29.379Z,76.05
2022-09-23T15:00:33.004Z,77.63
2022-09-23T15:05:44.275Z,79.96
2022-09-23T15:10:50.064Z,79.91
2022-09-23T15:15:54.528Z,79.15
2022-09-23T15:21:01.905Z,80.31
2022-09-23T15:26:10.960Z,81.78
2022-09-23T15:31:15.233Z,82.83
2022-09-23T15:36:20.904Z,84.49
2022-09-23T15:41:25.598Z,85.86
2022-09-23T15:46:33.922Z,87.99
2022-09-23T15:51:38.411Z,88.91
2022-09-23T15:56:42.725Z,90.27
2022-09-23T16:01:45.867Z,90.52
2022-09-23T16:06:49.162Z,91.72
2022-09-23T16:11:53.596Z,92.28
2022-09-23T16:16:56.797Z,93.54
2022-09-23T16:22:00.261Z,94.76
2022-09-23T16:27:07.921Z,94.47
2022-09-23T16:32:11.203Z,94.37
2022-09-23T16:37:18.034Z,95.53
2022-09-23T16:54:55.359Z,98.22
2022-09-23T17:40:13.193Z,100.00
2022-09-23T17:45:16.206Z,100.00
2022-09-23T17:50:19.761Z,100.00
2022-09-23T17:55:23.994Z,100.00
2022-09-23T18:00:27.878Z,100.00
2022-09-23T18:05:30.716Z,100.00
2022-09-23T18:10:35.134Z,100.00
2022-09-23T18:15:38.665Z,100.00
2022-09-23T18:20:41.609Z,100.00
2022-09-23T18:25:45.957Z,100.00
2022-09-23T18:30:54.294Z,100.00
2022-09-23T18:36:00.241Z,100.00
2022-09-23T18:41:04.889Z,100.00
2022-09-23T18:46:11.017Z,100.00
2022-09-23T18:51:16.552Z,100.00
2022-09-23T18:56:22.183Z,100.00
2022-09-23T19:01:25.398Z,100.00
2022-09-23T19:06:29.241Z,100.00
2022-09-23T19:11:36.350Z,100.00
2022-09-23T19:16:40.517Z,100.00
2022-09-23T19:21:43.775Z,100.00
2022-09-23T19:26:48.542Z,100.00
2022-09-23T19:31:52.191Z,100.00
2022-09-23T19:36:57.516Z,100.00
2022-09-23T19:42:01.876Z,100.00
2022-09-23T19:47:05.130Z,100.00
2022-09-23T19:52:08.301Z,100.00
2022-09-23T19:57:12.772Z,100.00
2022-09-23T20:02:17.040Z,100.00
2022-09-23T20:07:20.703Z,100.00
2022-09-23T20:12:25.187Z,100.00
2022-09-23T20:17:30.640Z,100.00
2022-09-23T20:22:34.699Z,100.00
2022-09-23T20:27:40.967Z,100.00
2022-09-23T20:32:44.883Z,100.00
2022-09-23T20:37:48.005Z,100.00
2022-09-23T20:42:53.091Z,100.00
2022-09-23T20:48:00.340Z,100.00
2022-09-23T20:53:03.238Z,100.00
2022-09-23T20:58:07.630Z,100.00
2022-09-23T21:03:10.648Z,100.00
2022-09-23T21:08:13.983Z,100.00
2022-09-23T21:13:18.334Z,100.00
2022-09-23T21:18:22.746Z,100.00
2022-09-23T21:23:27.258Z,100.00
2022-09-23T21:28:35.956Z,100.00
2022-09-23T21:33:39.502Z,100.00
2022-09-23T21:38:45.109Z,100.00
2022-09-23T21:43:49.938Z,100.00
2022-09-23T21:48:55.192Z,100.00
2022-09-23T21:54:01.117Z,100.00
2022-09-23T21:59:09.549Z,100.00
2022-09-23T22:04:17.082Z,100.00
2022-09-23T22:09:22.238Z,100.00
2022-09-23T22:14:27.378Z,100.00
2022-09-23T22:19:35.388Z,100.00
2022-09-23T22:24:39.140Z,100.00
2022-09-23T22:30:01.073Z,100.00
2022-09-23T22:35:04.343Z,100.00
2022-09-23T22:40:09.663Z,100.00
2022-09-23T22:45:14.440Z,100.00
2022-09-23T22:50:17.507Z,100.00
2022-09-23T22:55:20.716Z,100.00
2022-09-23T23:00:24.989Z,100.00
2022-09-23T23:05:28.221Z,100.00
2022-09-23T23:10:31.228Z,100.00
2022-09-23T23:15:35.668Z,100.00
2022-09-23T23:20:38.724Z,100.00
2022-09-23T23:25:41.655Z,100.00
2022-09-23T23:30:45.988Z,100.00
2022-09-23T23:35:51.761Z,100.00
2022-09-23T23:40:56.361Z,100.00
2022-09-23T23:46:01.557Z,100.00
2022-09-23T23:51:07.027Z,100.00
2022-09-23T23:56:12.334Z,100.00
